Time;durP1;ratioP1;P1;durP2;ratioP2;P2;SDS_P1;SDS_P2;PMS_P1;PMS_P2;Temp;Humidity;BMP_temperature;BMP_pressure;BME280_temperature;BME280_humidity;BME280_pressure;Samples;Min_cycle;Max_cycle;Signal;HPM_P1;HPM_P2
2022/06/10 00:01:35;;;;;;;;;6.33;6.33;;;;;-147.17;100.00;-15917.19;5063324;27;51009;-63
2022/06/10 00:04:00;;;;;;;;;6.67;6.00;;;;;-147.17;100.00;-15917.19;5063206;27;51026;-63
2022/06/10 00:06:25;;;;;;;;;6.00;5.00;;;;;-147.17;100.00;-15917.19;5067769;27;51795;-63
2022/06/10 00:08:51;;;;;;;;;6.67;6.67;;;;;-147.17;100.00;-15917.19;5064353;28;51066;-63
2022/06/10 00:11:16;;;;;;;;;6.00;6.00;;;;;-147.17;100.00;-15917.19;5060324;28;51189;-64
2022/06/10 00:13:44;;;;;;;;;7.00;6.00;;;;;-147.17;100.00;-15917.19;5066813;28;51189;-64
2022/06/10 00:16:10;;;;;;;;;5.67;5.67;;;;;-147.17;100.00;-15917.19;5068737;27;51887;-64
2022/06/10 00:18:36;;;;;;;;;6.67;5.67;;;;;-147.17;100.00;-15917.19;5057904;28;51043;-63
2022/06/10 00:21:05;;;;;;;;;7.00;6.00;;;;;-147.17;100.00;-15917.19;5066594;27;51160;-64
2022/06/10 00:23:30;;;;;;;;;4.67;4.67;;;;;-147.17;100.00;-15917.19;5065994;28;51155;-64
2022/06/10 00:25:55;;;;;;;;;5.00;5.00;;;;;-147.17;100.00;-15917.19;5067284;28;51119;-63
2022/06/10 00:28:21;;;;;;;;;6.33;5.67;;;;;-147.17;100.00;-15917.19;5057764;27;51047;-64
2022/06/10 00:30:46;;;;;;;;;7.33;7.33;;;;;-147.17;100.00;-15917.19;5056509;28;51198;-63
2022/06/10 00:33:12;;;;;;;;;6.33;6.33;;;;;-147.17;100.00;-15917.19;5071540;27;50955;-64
2022/06/10 00:35:39;;;;;;;;;8.33;7.00;;;;;-147.17;100.00;-15917.19;5068092;27;51831;-64
2022/06/10 00:38:05;;;;;;;;;11.33;11.00;;;;;-147.17;100.00;-15917.19;5071894;27;50942;-63
2022/06/10 00:40:39;;;;;;;;;6.67;6.67;;;;;-147.17;100.00;-15917.19;5082675;27;51921;-64
2022/06/10 00:43:06;;;;;;;;;6.67;5.67;;;;;-147.17;100.00;-15917.19;5065104;28;51157;-64
2022/06/10 00:45:50;;;;;;;;;5.67;5.67;;;;;-147.17;100.00;-15917.19;5053995;28;51708;-64
2022/06/10 00:48:30;;;;;;;;;4.67;4.67;;;;;-147.17;100.00;-15917.19;5068038;28;51350;-63
2022/06/10 00:50:58;;;;;;;;;7.67;7.00;;;;;-147.17;100.00;-15917.19;5070103;28;51177;-63
2022/06/10 00:53:31;;;;;;;;;6.67;6.00;;;;;-147.17;100.00;-15917.19;5066243;28;51304;-65
2022/06/10 00:55:59;;;;;;;;;5.00;4.33;;;;;-147.17;100.00;-15917.19;5071827;28;51209;-64
2022/06/10 00:58:37;;;;;;;;;5.67;5.67;;;;;-147.17;100.00;-15917.19;5065206;27;50996;-64
2022/06/10 01:01:03;;;;;;;;;7.00;6.67;;;;;-147.17;100.00;-15917.19;5063992;27;51298;-64
2022/06/10 01:03:29;;;;;;;;;5.00;5.00;;;;;-147.17;100.00;-15917.19;5062545;27;51360;-62
2022/06/10 01:05:55;;;;;;;;;7.33;5.00;;;;;-147.17;100.00;-15917.19;5069442;28;51158;-64
2022/06/10 01:08:22;;;;;;;;;5.67;5.67;;;;;-147.17;100.00;-15917.19;5061067;28;51077;-64
2022/06/10 01:10:53;;;;;;;;;5.67;5.00;;;;;-147.17;100.00;-15917.19;5061713;28;51102;-64
2022/06/10 01:13:36;;;;;;;;;8.33;7.33;;;;;-147.17;100.00;-15917.19;5067221;27;52735;-64
2022/06/10 01:16:11;;;;;;;;;5.33;5.33;;;;;-147.17;100.00;-15917.19;5068954;28;51152;-63
2022/06/10 01:18:53;;;;;;;;;5.33;5.00;;;;;-147.17;100.00;-15917.19;5066056;27;51094;-63
2022/06/10 01:21:38;;;;;;;;;5.33;5.33;;;;;-147.17;100.00;-15917.19;5067927;28;51039;-63
2022/06/10 01:24:16;;;;;;;;;7.67;6.67;;;;;-147.17;100.00;-15917.19;5059888;28;51050;-64
2022/06/10 01:30:20;;;;;;;;;5.33;5.33;;;;;-147.17;100.00;-15917.19;5049939;27;51162;-64
2022/06/10 01:33:19;;;;;;;;;4.33;4.33;;;;;-147.17;100.00;-15917.19;5071593;27;51117;-64
2022/06/10 01:36:29;;;;;;;;;5.50;5.50;;;;;-147.17;100.00;-15917.19;5070100;28;51300;-64
2022/06/10 01:39:13;;;;;;;;;6.67;6.00;;;;;-147.17;100.00;-15917.19;5026859;28;53413;-64
2022/06/10 01:41:48;;;;;;;;;6.33;5.67;;;;;-147.17;100.00;-15917.19;5026534;28;50938;-64
2022/06/10 01:44:16;;;;;;;;;4.67;4.67;;;;;-147.17;100.00;-15917.19;5051935;27;51385;-64
2022/06/10 01:47:05;;;;;;;;;6.33;5.67;;;;;-147.17;100.00;-15917.19;5065303;28;51132;-64
2022/06/10 01:49:38;;;;;;;;;6.33;5.33;;;;;-147.17;100.00;-15917.19;5054859;28;51249;-64
2022/06/10 01:52:43;;;;;;;;;7.33;6.00;;;;;-147.17;100.00;-15917.19;5069472;27;51045;-64
2022/06/10 01:55:13;;;;;;;;;5.67;5.00;;;;;-147.17;100.00;-15917.19;5004102;28;51052;-64
2022/06/10 01:57:50;;;;;;;;;6.00;5.33;;;;;-147.17;100.00;-15917.19;5001663;28;52112;-65
2022/06/10 02:00:20;;;;;;;;;5.33;5.00;;;;;-147.17;100.00;-15917.19;5038478;28;51315;-64
2022/06/10 02:03:01;;;;;;;;;6.67;6.00;;;;;-147.17;100.00;-15917.19;5063029;27;51036;-64
2022/06/10 02:05:31;;;;;;;;;6.00;6.00;;;;;-147.17;100.00;-15917.19;5056511;28;50983;-63
2022/06/10 02:08:18;;;;;;;;;6.67;6.67;;;;;-147.17;100.00;-15917.19;5073499;27;51107;-63
2022/06/10 02:10:54;;;;;;;;;6.33;5.00;;;;;-147.17;100.00;-15917.19;5058157;28;52072;-63
2022/06/10 02:13:28;;;;;;;;;4.67;4.67;;;;;-147.17;100.00;-15917.19;5057043;27;51010;-63
2022/06/10 02:15:57;;;;;;;;;6.00;5.67;;;;;-147.17;100.00;-15917.19;5058938;28;52502;-65
2022/06/10 02:18:31;;;;;;;;;7.00;5.33;;;;;-147.17;100.00;-15917.19;5064634;27;50900;-63
2022/06/10 02:21:04;;;;;;;;;3.33;3.33;;;;;-147.17;100.00;-15917.19;5066677;28;51056;-64
2022/06/10 02:23:34;;;;;;;;;8.33;6.67;;;;;-147.17;100.00;-15917.19;5063875;28;51200;-65
2022/06/10 02:26:02;;;;;;;;;7.00;5.67;;;;;-147.17;100.00;-15917.19;5056325;28;51140;-66
2022/06/10 02:28:34;;;;;;;;;5.00;4.67;;;;;-147.17;100.00;-15917.19;5066980;27;51249;-63
2022/06/10 02:31:13;;;;;;;;;5.00;5.00;;;;;-147.17;100.00;-15917.19;5065056;28;51152;-62
2022/06/10 02:33:39;;;;;;;;;7.00;6.33;;;;;-147.17;100.00;-15917.19;5059434;28;51101;-64
2022/06/10 02:36:07;;;;;;;;;5.00;4.33;;;;;-147.17;100.00;-15917.19;5052628;28;51069;-63
2022/06/10 02:38:38;;;;;;;;;4.00;3.67;;;;;-147.17;100.00;-15917.19;5067019;27;51203;-64
2022/06/10 02:41:19;;;;;;;;;5.00;4.33;;;;;-147.17;100.00;-15917.19;5061038;28;52014;-63
2022/06/10 02:44:00;;;;;;;;;5.67;5.67;;;;;-147.17;100.00;-15917.19;5071426;27;50970;-64
2022/06/10 02:46:53;;;;;;;;;5.00;5.00;;;;;-147.17;100.00;-15917.19;5064846;27;51270;-64
2022/06/10 02:49:20;;;;;;;;;6.00;6.00;;;;;-147.17;100.00;-15917.19;5064561;27;51203;-64
2022/06/10 02:51:47;;;;;;;;;5.33;5.00;;;;;-147.17;100.00;-15917.19;5062119;28;51224;-66
2022/06/10 02:54:18;;;;;;;;;7.33;6.00;;;;;-147.17;100.00;-15917.19;5060457;28;51515;-63
2022/06/10 02:56:43;;;;;;;;;7.67;5.67;;;;;-147.17;100.00;-15917.19;5068312;27;51133;-64
2022/06/10 03:02:18;;;;;;;;;6.33;5.67;;;;;-147.17;100.00;-15917.19;5063511;28;51083;-64
2022/06/10 03:05:02;;;;;;;;;6.00;6.00;;;;;-147.17;100.00;-15917.19;5064424;28;50993;-63
2022/06/10 03:07:37;;;;;;;;;7.00;6.00;;;;;-147.17;100.00;-15917.19;5066861;27;51176;-63
2022/06/10 03:10:14;;;;;;;;;6.00;5.00;;;;;-147.17;100.00;-15917.19;5072885;28;51323;-63
2022/06/10 03:12:55;;;;;;;;;7.00;6.00;;;;;-147.17;100.00;-15917.19;5068100;28;52079;-64
2022/06/10 03:15:36;;;;;;;;;6.33;6.00;;;;;-147.17;100.00;-15917.19;5060050;28;51155;-64
2022/06/10 03:18:19;;;;;;;;;6.00;6.00;;;;;-147.17;100.00;-15917.19;5067306;28;51061;-63
2022/06/10 03:20:59;;;;;;;;;5.00;5.00;;;;;-147.17;100.00;-15917.19;5064469;28;50947;-64
2022/06/10 03:23:40;;;;;;;;;7.33;6.33;;;;;-147.17;100.00;-15917.19;5067549;27;52183;-64
2022/06/10 03:26:19;;;;;;;;;7.67;7.33;;;;;-147.17;100.00;-15917.19;5061791;28;51025;-64
2022/06/10 03:28:54;;;;;;;;;8.00;5.00;;;;;-147.17;100.00;-15917.19;5065186;28;51161;-64
2022/06/10 03:31:28;;;;;;;;;5.33;5.33;;;;;-147.17;100.00;-15917.19;5061554;28;51114;-64
2022/06/10 03:34:03;;;;;;;;;5.67;5.67;;;;;-147.17;100.00;-15917.19;5055262;28;51103;-64
2022/06/10 03:36:31;;;;;;;;;7.33;7.00;;;;;-147.17;100.00;-15917.19;5059411;28;51176;-63
2022/06/10 03:38:57;;;;;;;;;5.00;4.67;;;;;-147.17;100.00;-15917.19;5064010;28;51026;-63
2022/06/10 03:41:26;;;;;;;;;5.67;5.00;;;;;-147.17;100.00;-15917.19;5067756;27;51124;-64
2022/06/10 03:43:54;;;;;;;;;5.33;5.33;;;;;-147.17;100.00;-15917.19;5063351;28;51222;-64
2022/06/10 03:46:23;;;;;;;;;7.00;6.33;;;;;-147.17;100.00;-15917.19;5073536;27;51292;-64
2022/06/10 03:48:50;;;;;;;;;8.33;7.00;;;;;-147.17;100.00;-15917.19;5066449;27;51145;-64
2022/06/10 03:51:17;;;;;;;;;6.00;5.00;;;;;-147.17;100.00;-15917.19;5059667;28;50956;-64
2022/06/10 03:53:44;;;;;;;;;6.00;6.00;;;;;-147.17;100.00;-15917.19;5069361;28;51941;-63
2022/06/10 03:56:11;;;;;;;;;4.00;4.00;;;;;-147.17;100.00;-15917.19;5065725;28;50951;-64
2022/06/10 03:58:38;;;;;;;;;5.67;5.67;;;;;-147.17;100.00;-15917.19;5055921;28;51141;-64
2022/06/10 04:01:04;;;;;;;;;8.33;6.00;;;;;-147.17;100.00;-15917.19;5064657;28;51276;-65
2022/06/10 04:03:29;;;;;;;;;7.00;6.33;;;;;-147.17;100.00;-15917.19;5071966;27;52504;-64
2022/06/10 04:05:55;;;;;;;;;7.00;6.00;;;;;-147.17;100.00;-15917.19;5063108;28;50948;-64
2022/06/10 04:08:21;;;;;;;;;6.67;6.67;;;;;-147.17;100.00;-15917.19;5065539;27;51225;-63
2022/06/10 04:10:46;;;;;;;;;7.00;6.33;;;;;-147.17;100.00;-15917.19;5061666;28;51281;-63
2022/06/10 04:13:11;;;;;;;;;7.00;6.00;;;;;-147.17;100.00;-15917.19;5068301;27;51621;-63
2022/06/10 04:15:37;;;;;;;;;6.33;6.00;;;;;-147.17;100.00;-15917.19;5068547;27;50984;-64
2022/06/10 04:18:04;;;;;;;;;7.67;6.67;;;;;-147.17;100.00;-15917.19;5056113;28;51612;-64
2022/06/10 04:20:34;;;;;;;;;6.67;5.67;;;;;-147.17;100.00;-15917.19;5059789;28;51214;-64
2022/06/10 04:22:59;;;;;;;;;4.00;4.00;;;;;-147.17;100.00;-15917.19;5070978;27;52162;-65
2022/06/10 04:25:25;;;;;;;;;6.67;6.00;;;;;-147.17;100.00;-15917.19;5061204;28;51069;-65
2022/06/10 04:27:51;;;;;;;;;6.67;6.33;;;;;-147.17;100.00;-15917.19;5056347;28;51246;-63
2022/06/10 04:30:22;;;;;;;;;7.00;6.00;;;;;-147.17;100.00;-15917.19;5066345;28;50980;-63
2022/06/10 04:32:48;;;;;;;;;5.67;5.00;;;;;-147.17;100.00;-15917.19;5070471;28;52298;-63
2022/06/10 04:35:13;;;;;;;;;8.00;8.00;;;;;-147.17;100.00;-15917.19;5057869;27;51126;-64
2022/06/10 04:37:38;;;;;;;;;7.00;7.00;;;;;-147.17;100.00;-15917.19;5067707;28;51292;-64
2022/06/10 04:40:04;;;;;;;;;7.00;7.00;;;;;-147.17;100.00;-15917.19;5067834;28;50912;-63
2022/06/10 04:42:30;;;;;;;;;5.67;5.67;;;;;-147.17;100.00;-15917.19;5057007;28;53772;-64
2022/06/10 04:44:57;;;;;;;;;6.00;6.00;;;;;-147.17;100.00;-15917.19;5053872;28;50870;-64
2022/06/10 04:47:22;;;;;;;;;6.00;6.00;;;;;-147.17;100.00;-15917.19;5064288;28;51211;-64
2022/06/10 04:49:48;;;;;;;;;8.00;7.00;;;;;-147.17;100.00;-15917.19;5067734;27;51357;-63
2022/06/10 04:52:13;;;;;;;;;6.00;6.00;;;;;-147.17;100.00;-15917.19;5066888;28;51717;-64
2022/06/10 04:54:38;;;;;;;;;8.00;7.00;;;;;-147.17;100.00;-15917.19;5072819;27;51156;-64
2022/06/10 04:57:04;;;;;;;;;8.33;8.00;;;;;-147.17;100.00;-15917.19;5065195;27;51122;-64
2022/06/10 04:59:29;;;;;;;;;8.00;8.00;;;;;-147.17;100.00;-15917.19;5059646;28;51474;-65
2022/06/10 05:01:55;;;;;;;;;9.67;8.00;;;;;-147.17;100.00;-15917.19;5065233;27;52652;-65
2022/06/10 05:04:20;;;;;;;;;9.67;8.67;;;;;-147.17;100.00;-15917.19;5059586;27;51192;-65
2022/06/10 05:06:46;;;;;;;;;8.67;6.67;;;;;-147.17;100.00;-15917.19;5063060;28;51186;-63
2022/06/10 05:09:11;;;;;;;;;7.00;7.00;;;;;-147.17;100.00;-15917.19;5066187;27;51121;-65
2022/06/10 05:11:36;;;;;;;;;7.00;6.00;;;;;-147.17;100.00;-15917.19;5061299;27;51149;-64
2022/06/10 05:14:02;;;;;;;;;8.00;7.00;;;;;-147.17;100.00;-15917.19;5055819;28;51106;-65
2022/06/10 05:16:27;;;;;;;;;5.00;5.00;;;;;-147.17;100.00;-15917.19;5064945;27;51190;-64
2022/06/10 05:18:54;;;;;;;;;5.00;5.00;;;;;-147.17;100.00;-15917.19;5069413;27;51255;-64
2022/06/10 05:21:20;;;;;;;;;4.00;4.00;;;;;-147.17;100.00;-15917.19;5066740;27;52069;-64
2022/06/10 05:23:46;;;;;;;;;5.33;5.00;;;;;-147.17;100.00;-15917.19;5068119;28;51036;-64
2022/06/10 05:26:14;;;;;;;;;7.00;6.33;;;;;-147.17;100.00;-15917.19;5066104;27;52629;-64
2022/06/10 05:28:39;;;;;;;;;6.00;6.00;;;;;-147.17;100.00;-15917.19;5070156;28;51068;-64
2022/06/10 05:31:05;;;;;;;;;7.00;5.33;;;;;-147.17;100.00;-15917.19;5062008;28;51876;-65
2022/06/10 05:36:14;;;;;;;;;5.00;5.00;;;;;-147.17;100.00;-15917.19;5059909;28;51284;-65
2022/06/10 05:38:39;;;;;;;;;6.67;6.00;;;;;-147.17;100.00;-15917.19;5063205;28;51395;-65
2022/06/10 05:42:04;;;;;;;;;4.00;4.00;;;;;-147.17;100.00;-15917.19;5068237;27;51978;-64
2022/06/10 05:43:50;;;;;;;;;7.33;7.33;;;;;-147.17;100.00;-15917.19;5066858;28;51356;-64
2022/06/10 05:46:16;;;;;;;;;5.00;4.33;;;;;-147.17;100.00;-15917.19;5063962;27;51355;-64
2022/06/10 05:48:42;;;;;;;;;6.00;5.00;;;;;-147.17;100.00;-15917.19;5057042;28;51209;-64
2022/06/10 05:51:08;;;;;;;;;4.00;3.67;;;;;-147.17;100.00;-15917.19;5058325;27;52758;-64
2022/06/10 05:53:33;;;;;;;;;4.00;4.00;;;;;-147.17;100.00;-15917.19;5065859;28;51129;-64
2022/06/10 05:55:59;;;;;;;;;4.00;4.00;;;;;-147.17;100.00;-15917.19;5068948;28;51322;-65
2022/06/10 05:58:24;;;;;;;;;6.00;5.67;;;;;-147.17;100.00;-15917.19;5069020;27;51094;-64
2022/06/10 06:00:49;;;;;;;;;3.33;3.00;;;;;-147.17;100.00;-15917.19;5059002;28;51870;-64
2022/06/10 06:03:15;;;;;;;;;3.33;3.33;;;;;-147.17;100.00;-15917.19;5060360;27;51160;-63
2022/06/10 06:05:40;;;;;;;;;4.00;3.33;;;;;-147.17;100.00;-15917.19;5063939;28;51748;-65
2022/06/10 06:08:05;;;;;;;;;5.00;5.00;;;;;-147.17;100.00;-15917.19;5060158;28;51075;-64
2022/06/10 06:10:31;;;;;;;;;12.00;11.33;;;;;-147.17;100.00;-15917.19;5064495;28;53243;-64
2022/06/10 06:12:56;;;;;;;;;5.67;5.00;;;;;-147.17;100.00;-15917.19;5067609;27;51219;-64
2022/06/10 06:15:23;;;;;;;;;2.00;2.00;;;;;-147.17;100.00;-15917.19;5061199;28;51155;-64
2022/06/10 06:17:50;;;;;;;;;3.67;3.00;;;;;-147.17;100.00;-15917.19;5062593;27;51122;-64
2022/06/10 06:20:16;;;;;;;;;3.00;3.00;;;;;-147.17;100.00;-15917.19;5061634;27;51750;-63
2022/06/10 06:22:41;;;;;;;;;2.00;2.00;;;;;-147.17;100.00;-15917.19;5068283;28;51129;-64
2022/06/10 06:25:07;;;;;;;;;4.33;3.67;;;;;-147.17;100.00;-15917.19;5067899;27;50998;-64
2022/06/10 06:27:32;;;;;;;;;1.00;1.00;;;;;-147.17;100.00;-15917.19;5057147;27;51351;-64
2022/06/10 06:30:00;;;;;;;;;3.00;2.67;;;;;-147.17;100.00;-15917.19;5066991;27;51367;-65
2022/06/10 06:32:26;;;;;;;;;1.67;1.67;;;;;-147.17;100.00;-15917.19;5061846;28;51153;-65
2022/06/10 06:34:51;;;;;;;;;3.67;3.67;;;;;-147.17;100.00;-15917.19;5060431;28;51375;-65
2022/06/10 06:37:17;;;;;;;;;2.33;2.00;;;;;-147.17;100.00;-15917.19;5065071;27;51265;-64
2022/06/10 06:39:43;;;;;;;;;3.00;2.00;;;;;-147.17;100.00;-15917.19;5052371;28;51960;-66
2022/06/10 06:42:11;;;;;;;;;3.33;3.00;;;;;-147.17;100.00;-15917.19;5058199;28;51310;-64
2022/06/10 06:44:37;;;;;;;;;2.00;2.00;;;;;-147.17;100.00;-15917.19;5055297;27;51228;-64
2022/06/10 06:47:02;;;;;;;;;3.00;2.00;;;;;-147.17;100.00;-15917.19;5064933;27;51508;-63
2022/06/10 06:49:29;;;;;;;;;3.00;3.00;;;;;-147.17;100.00;-15915.72;5055819;28;51763;-64
2022/06/10 06:51:55;;;;;;;;;3.00;1.67;;;;;-147.17;100.00;-15420.25;5052079;28;51098;-63
2022/06/10 06:54:21;;;;;;;;;1.00;0.00;;;;;-147.17;100.00;-14676.94;5060775;27;51723;-63
2022/06/10 06:56:47;;;;;;;;;5.00;5.00;;;;;-147.17;100.00;-14429.16;5059219;28;51061;-65
2022/06/10 06:59:13;;;;;;;;;4.00;3.67;;;;;-147.17;100.00;-14429.16;5057552;28;51638;-64
2022/06/10 07:01:40;;;;;;;;;2.00;1.33;;;;;-147.17;100.00;-14676.94;5063433;27;51168;-62
2022/06/10 07:04:06;;;;;;;;;3.00;2.00;;;;;-147.17;100.00;-14181.31;5058308;27;52792;-63
2022/06/10 07:06:32;;;;;;;;;3.33;3.00;;;;;-147.17;100.00;-14181.31;5060208;27;51971;-64
2022/06/10 07:08:58;;;;;;;;;2.00;2.00;;;;;-147.17;100.00;-13189.88;5063358;27;51058;-64
2022/06/10 07:11:23;;;;;;;;;2.00;2.00;;;;;-147.17;100.00;-11950.22;5068771;27;50920;-64
2022/06/10 07:13:49;;;;;;;;;1.00;1.00;;;;;-147.17;100.00;-11702.25;5058335;28;51106;-63
2022/06/10 07:16:14;;;;;;;;;2.00;2.00;;;;;-147.17;100.00;-12198.19;5062308;27;51074;-63
2022/06/10 07:18:40;;;;;;;;;1.33;1.00;;;;;-147.17;100.00;-10958.19;5070180;27;52096;-65
2022/06/10 07:21:06;;;;;;;;;1.00;1.00;;;;;-147.17;100.00;-10462.09;5055244;27;52077;-64
2022/06/10 07:23:31;;;;;;;;;1.67;1.67;;;;;-147.17;100.00;-8973.38;5056166;27;51862;-63
2022/06/10 07:25:59;;;;;;;;;2.00;2.00;;;;;-147.17;100.00;-9469.69;5065584;27;51097;-63
2022/06/10 07:28:25;;;;;;;;;1.00;1.00;;;;;-147.17;100.00;-9469.69;5059723;27;51777;-64
2022/06/10 07:30:51;;;;;;;;;3.67;3.67;;;;;-147.17;100.00;-8477.03;5060236;28;51216;-63
2022/06/10 07:33:17;;;;;;;;;2.00;2.00;;;;;-147.17;100.00;-7980.59;5051823;27;51234;-64
2022/06/10 07:35:42;;;;;;;;;1.67;0.67;;;;;-147.17;100.00;-6987.56;5061047;27;51201;-63
2022/06/10 07:38:09;;;;;;;;;0.00;0.00;;;;;-147.17;100.00;-5497.50;5061363;28;52112;-64
2022/06/10 07:43:23;;;;;;;;;2.33;2.00;;;;;-147.17;100.00;-4503.81;5055555;28;51237;-64
2022/06/10 07:45:49;;;;;;;;;1.33;1.00;;;;;-147.17;100.00;-4255.34;5054980;28;51379;-63
2022/06/10 07:48:15;;;;;;;;;29.00;28.50;;;;;-147.17;100.00;-4255.34;5062835;27;51919;-64
2022/06/10 07:50:42;;;;;;;;;3.00;1.67;;;;;-147.17;100.00;-3261.34;5060374;28;51355;-65
2022/06/10 07:53:09;;;;;;;;;3.67;3.67;;;;;-147.17;100.00;-4006.88;5061757;27;50951;-64
2022/06/10 07:55:35;;;;;;;;;6.00;6.00;;;;;-147.17;100.00;-2267.06;5066184;28;51351;-62
2022/06/10 07:58:00;;;;;;;;;2.00;2.00;;;;;-147.17;100.00;-277.75;5062400;27;51604;-63
2022/06/10 08:00:26;;;;;;;;;1.00;1.00;;;;;-147.17;100.00;468.50;5063006;28;51321;-63
2022/06/10 08:02:52;;;;;;;;;1.33;1.00;;;;;-147.17;100.00;717.28;5062457;28;51152;-65
2022/06/10 08:05:19;;;;;;;;;0.00;0.00;;;;;-147.17;100.00;468.50;5059810;27;51232;-64
2022/06/10 08:07:44;;;;;;;;;1.00;1.00;;;;;-147.17;100.00;1214.91;5068166;28;52071;-64
2022/06/10 08:10:26;;;;;;;;;0.00;0.00;;;;;-147.17;100.00;-526.47;5056795;28;51180;-63
2022/06/10 08:12:51;;;;;;;;;4.33;2.33;;;;;-147.17;100.00;-29.03;5071418;27;51395;-63
2022/06/10 08:15:19;;;;;;;;;0.33;0.33;;;;;-147.17;100.00;-1272.53;5065557;27;51898;-64
2022/06/10 08:17:45;;;;;;;;;1.00;1.00;;;;;-147.17;100.00;-1769.84;5065773;28;52947;-63
2022/06/10 08:20:18;;;;;;;;;1.00;1.00;;;;;-147.17;100.00;-1769.84;5061048;28;51180;-65
2022/06/10 08:22:43;;;;;;;;;2.33;1.67;;;;;-147.17;100.00;-1272.53;5072521;27;50933;-60
2022/06/10 08:25:11;;;;;;;;;2.00;2.00;;;;;-147.17;100.00;-1023.88;5069602;27;51090;-62
2022/06/10 08:27:37;;;;;;;;;2.00;1.00;;;;;-147.17;100.00;219.72;5066853;28;51240;-62
2022/06/10 08:30:08;;;;;;;;;0.00;0.00;;;;;-147.17;100.00;3206.00;5064101;28;51183;-62
2022/06/10 08:32:33;;;;;;;;;2.00;0.00;;;;;-147.17;100.00;6692.91;5065080;27;51256;-61
2022/06/10 08:35:02;;;;;;;;;0.00;0.00;;;;;-147.17;100.00;10432.38;5064205;27;51444;-63
2022/06/10 08:37:27;;;;;;;;;2.00;2.00;;;;;-147.17;100.00;10931.25;5070913;27;53014;-61
2022/06/10 08:39:53;;;;;;;;;1.00;1.00;;;;;-147.17;100.00;10432.38;5063958;27;51000;-61
2022/06/10 08:42:39;;;;;;;;;0.33;0.00;;;;;-147.17;100.00;10681.81;5060879;28;51185;-60
2022/06/10 08:45:17;;;;;;;;;1.67;1.00;;;;;-147.17;100.00;11679.66;5060382;27;51237;-61
2022/06/10 08:48:09;;;;;;;;;1.00;1.00;;;;;-147.17;100.00;12178.69;5062406;27;51642;-60
2022/06/10 08:50:44;;;;;;;;;0.00;0.00;;;;;-147.17;100.00;13676.16;5057540;27;51469;-61
2022/06/10 08:53:28;;;;;;;;;1.33;0.33;;;;;-147.17;100.00;14425.13;5065421;27;51149;-60
2022/06/10 08:56:06;;;;;;;;;2.00;1.00;;;;;-147.17;100.00;14674.81;5065678;27;51315;-61
2022/06/10 08:58:41;;;;;;;;;2.00;1.67;;;;;-147.17;100.00;13925.81;5053773;28;51724;-62
2022/06/10 09:01:14;;;;;;;;;1.33;1.00;;;;;-147.17;100.00;13676.16;5065398;28;51187;-62
2022/06/10 09:03:47;;;;;;;;;1.00;0.67;;;;;-147.17;100.00;12677.78;5064713;28;51089;-60
2022/06/10 09:06:19;;;;;;;;;1.33;1.00;;;;;-147.17;100.00;11180.69;5065961;28;51050;-62
2022/06/10 09:08:50;;;;;;;;;1.00;1.00;;;;;-147.17;100.00;11430.19;5061390;28;52827;-61
2022/06/10 09:11:37;;;;;;;;;0.67;0.67;;;;;-147.17;100.00;12178.69;5058925;27;51124;-61
2022/06/10 09:14:03;;;;;;;;;2.00;2.00;;;;;-147.17;100.00;12428.22;5069256;27;51245;-62
2022/06/10 09:16:42;;;;;;;;;1.33;0.67;;;;;-147.17;100.00;12927.34;5065374;28;51422;-61
2022/06/10 09:19:36;;;;;;;;;1.67;1.00;;;;;-147.17;100.00;12178.69;5067503;28;54417;-62
2022/06/10 09:22:23;;;;;;;;;2.00;0.33;;;;;-147.17;100.00;13676.16;5064829;27;51714;-63
2022/06/10 09:24:59;;;;;;;;;0.33;0.00;;;;;-147.17;100.00;12927.34;5061527;28;51077;-62
2022/06/10 09:27:30;;;;;;;;;0.67;0.67;;;;;-147.17;100.00;11929.16;5067174;28;51252;-61
2022/06/10 09:29:57;;;;;;;;;0.33;0.00;;;;;-147.17;100.00;12178.69;5057872;28;52475;-63
2022/06/10 09:32:51;;;;;;;;;1.00;1.00;;;;;-147.17;100.00;11929.16;5064648;28;51248;-61
2022/06/10 09:35:39;;;;;;;;;1.67;1.67;;;;;-147.17;100.00;11430.19;5064912;28;51998;-62
2022/06/10 09:38:34;;;;;;;;;0.00;0.00;;;;;-147.17;100.00;12927.34;5070594;28;51191;-63
2022/06/10 09:41:40;;;;;;;;;0.00;0.00;;;;;-147.17;100.00;15174.22;5068935;28;51862;-63
2022/06/10 09:44:06;;;;;;;;;0.00;0.00;;;;;-147.17;100.00;17422.38;5063662;27;51196;-66
2022/06/10 09:46:31;;;;;;;;;0.67;0.00;;;;;-147.17;100.00;20371.16;5061164;28;51125;-62
2022/06/10 09:49:17;;;;;;;;;0.00;0.00;;;;;-147.17;100.00;19292.94;5062960;28;51043;-62
2022/06/10 09:51:58;;;;;;;;;2.00;0.00;;;;;-147.17;100.00;17970.94;5059478;28;51088;-62
2022/06/10 09:54:36;;;;;;;;;0.00;0.00;;;;;-147.17;100.00;16173.25;5069715;27;51051;-63
2022/06/10 09:57:38;;;;;;;;;1.00;1.00;;;;;-147.17;100.00;16423.03;5062532;28;51359;-62
2022/06/10 10:00:34;;;;;;;;;0.00;0.00;;;;;-147.17;100.00;15423.94;5060717;28;51170;-63
2022/06/10 10:03:11;;;;;;;;;1.00;0.33;;;;;-147.17;100.00;15174.22;5060957;28;52001;-62
2022/06/10 10:06:02;;;;;;;;;0.00;0.00;;;;;-147.17;100.00;15423.94;5063967;28;51285;-65
2022/06/10 10:08:33;;;;;;;;;1.00;1.00;;;;;-147.17;100.00;16672.84;5069832;28;51188;-63
2022/06/10 10:11:08;;;;;;;;;1.00;1.00;;;;;-147.17;100.00;17937.75;5062338;28;51053;-63
2022/06/10 10:14:02;;;;;;;;;2.33;1.33;;;;;-147.17;100.00;19423.78;5051819;28;51969;-62
2022/06/10 10:16:37;;;;;;;;;8.67;8.67;;;;;-147.17;100.00;17672.25;5051273;28;51075;-62
2022/06/10 10:19:35;;;;;;;;;1.00;1.00;;;;;-147.17;100.00;15673.69;5065910;28;50874;-63
2022/06/10 10:22:26;;;;;;;;;4.00;3.33;;;;;-147.17;100.00;14175.44;5060895;28;50995;-63
2022/06/10 10:24:51;;;;;;;;;1.33;1.33;;;;;-147.17;100.00;13426.53;5051741;28;51776;-62
2022/06/10 10:27:32;;;;;;;;;2.00;2.00;;;;;-147.17;100.00;14175.44;5050239;28;51035;-63
2022/06/10 10:30:35;;;;;;;;;1.67;1.00;;;;;-147.17;100.00;13925.81;5055619;28;51144;-62
2022/06/10 10:33:05;;;;;;;;;4.33;3.67;;;;;-147.17;100.00;12428.22;5055279;28;51390;-63
2022/06/10 10:35:38;;;;;;;;;2.67;2.67;;;;;-147.17;100.00;10931.25;5051219;28;51768;-62
2022/06/10 10:38:12;;;;;;;;;2.00;1.67;;;;;-147.17;100.00;10432.38;5051910;28;50913;-62
2022/06/10 10:40:47;;;;;;;;;2.00;2.00;;;;;-147.17;100.00;10681.81;5067631;28;51156;-61
2022/06/10 10:43:21;;;;;;;;;2.67;2.33;;;;;-147.17;100.00;9933.56;5051968;28;51329;-62
2022/06/10 10:46:02;;;;;;;;;3.00;2.67;;;;;-147.17;100.00;9185.47;5065637;27;53544;-65
2022/06/10 10:48:32;;;;;;;;;4.67;4.67;;;;;-147.17;100.00;9185.47;5051955;27;50861;-62
2022/06/10 10:51:19;;;;;;;;;3.00;3.00;;;;;-147.17;100.00;8686.84;5051939;28;51157;-61
2022/06/10 10:54:01;;;;;;;;;5.00;4.33;;;;;-147.17;100.00;7440.50;5051679;28;51245;-62
2022/06/10 10:56:31;;;;;;;;;5.00;5.00;;;;;-147.17;100.00;5945.44;5051598;28;51011;-61
2022/06/10 10:58:57;;;;;;;;;1.67;1.67;;;;;-147.17;100.00;6443.75;5051758;28;50957;-62
2022/06/10 11:01:51;;;;;;;;;2.00;2.00;;;;;-147.17;100.00;7191.28;5060017;28;51319;-62
2022/06/10 11:04:16;;;;;;;;;4.33;4.33;;;;;-147.17;100.00;6692.91;5072387;27;50963;-63
2022/06/10 11:06:42;;;;;;;;;3.00;3.00;;;;;-147.17;100.00;5696.34;5069678;27;52431;-63
2022/06/10 11:09:23;;;;;;;;;6.00;5.33;;;;;-147.17;100.00;5447.22;5071968;27;50972;-63
2022/06/10 11:11:50;;;;;;;;;4.00;3.00;;;;;-147.17;100.00;5696.34;5051785;27;50996;-62
2022/06/10 11:14:25;;;;;;;;;4.33;4.33;;;;;-147.17;100.00;5198.13;5050375;28;50861;-62
2022/06/10 11:17:06;;;;;;;;;3.33;3.00;;;;;-147.17;100.00;3454.97;5051339;28;52393;-63
2022/06/10 11:19:31;;;;;;;;;3.33;3.00;;;;;-147.17;100.00;4201.94;5066207;28;51316;-62
2022/06/10 11:22:02;;;;;;;;;4.00;3.00;;;;;-147.17;100.00;219.72;5051583;28;50996;-63
2022/06/10 11:24:42;;;;;;;;;5.00;5.00;;;;;-147.17;100.00;3454.97;5067007;28;50905;-62
2022/06/10 11:27:26;;;;;;;;;3.33;3.33;;;;;-147.17;100.00;3703.94;5052845;28;51950;-63
2022/06/10 11:30:19;;;;;;;;;3.00;3.00;;;;;-147.17;100.00;5198.13;5055261;28;51083;-61
2022/06/10 11:32:48;;;;;;;;;2.00;2.00;;;;;-147.17;100.00;5447.22;5050395;28;51134;-63
2022/06/10 11:35:28;;;;;;;;;2.67;2.67;;;;;-147.17;100.00;5198.13;5055185;28;51185;-63
2022/06/10 11:37:58;;;;;;;;;3.00;2.00;;;;;-147.17;100.00;4949.06;5061451;28;51710;-62